Time;durP1;ratioP1;P1;durP2;ratioP2;P2;SDS_P1;SDS_P2;PMS_P1;PMS_P2;Temp;Humidity;BMP_temperature;BMP_pressure;BME280_temperature;BME280_humidity;BME280_pressure;Samples;Min_cycle;Max_cycle;Signal;HPM_P1;HPM_P2
2022/01/20 00:01:46;;;;;;;13.70;2.47;;;2.80;1.00;;;;;;6212726;23;20143;-46
2022/01/20 00:04:28;;;;;;;15.73;3.27;;;2.90;1.00;;;;;;6212792;23;20229;-46
2022/01/20 00:28:26;;;;;;;18.63;3.33;;;3.00;99.90;;;;;;6222815;23;20369;-46
2022/01/20 00:31:02;;;;;;;23.30;3.33;;;3.00;99.90;;;;;;6212631;23;20373;-46
2022/01/20 00:33:41;;;;;;;14.43;2.87;;;3.00;99.90;;;;;;6212102;23;20420;-46
2022/01/20 00:38:33;;;;;;;19.17;3.63;;;3.10;99.90;;;;;;6222651;23;20381;-46
2022/01/20 00:40:59;;;;;;;30.47;3.97;;;3.20;99.90;;;;;;6212297;23;20158;-45
2022/01/20 00:43:24;;;;;;;16.47;3.17;;;3.20;99.90;;;;;;6212679;23;20783;-46
2022/01/20 00:45:51;;;;;;;22.33;3.80;;;3.30;99.90;;;;;;6212274;23;20445;-45
2022/01/20 00:48:16;;;;;;;17.93;3.60;;;3.40;58.80;;;;;;6212094;23;20162;-46
2022/01/20 00:50:42;;;;;;;18.23;3.93;;;3.40;1.00;;;;;;6212152;23;20718;-45
2022/01/20 00:53:07;;;;;;;31.53;4.10;;;3.40;1.00;;;;;;6212181;23;20216;-46
2022/01/20 00:55:33;;;;;;;25.37;3.30;;;3.50;1.00;;;;;;6212276;23;20201;-46
2022/01/20 00:57:59;;;;;;;31.20;4.03;;;3.40;1.00;;;;;;6212213;23;20237;-46
2022/01/20 01:00:25;;;;;;;23.90;3.90;;;3.40;1.00;;;;;;6211914;23;20138;-46
2022/01/20 01:02:50;;;;;;;22.50;3.07;;;3.40;1.00;;;;;;6212229;23;20554;-46
2022/01/20 01:05:16;;;;;;;17.70;3.37;;;3.40;35.00;;;;;;6212101;23;20473;-46
2022/01/20 01:07:46;;;;;;;26.33;3.33;;;3.40;49.70;;;;;;6212003;23;20473;-46
2022/01/20 01:10:18;;;;;;;20.23;4.43;;;3.40;22.00;;;;;;6211926;23;20397;-46
2022/01/20 01:13:07;;;;;;;21.37;3.40;;;3.40;16.40;;;;;;6212041;23;20413;-45
2022/01/20 01:15:37;;;;;;;20.87;3.50;;;3.40;26.80;;;;;;6212414;23;20373;-46
2022/01/20 01:23:26;;;;;;;22.60;2.80;;;3.50;84.30;;;;;;6212070;23;20385;-46
2022/01/20 01:25:52;;;;;;;15.83;2.53;;;3.50;99.90;;;;;;6212075;23;20372;-45
2022/01/20 01:28:20;;;;;;;12.53;2.80;;;3.50;99.90;;;;;;6212382;23;20362;-46
2022/01/20 01:33:11;;;;;;;7.93;1.80;;;3.10;1.00;;;;;;6222281;23;20425;-46
2022/01/20 01:35:40;;;;;;;11.43;1.93;;;2.90;99.90;;;;;;6212065;23;20142;-46
2022/01/20 01:40:34;;;;;;;10.90;1.67;;;2.60;99.90;;;;;;6211772;23;20800;-46
2022/01/20 01:43:06;;;;;;;12.23;2.13;;;2.50;99.90;;;;;;6211943;23;20552;-46
2022/01/20 01:45:37;;;;;;;6.90;1.20;;;2.50;99.90;;;;;;6211791;23;20780;-46
2022/01/20 01:48:04;;;;;;;4.63;1.57;;;2.40;1.00;;;;;;6211407;23;20397;-46
2022/01/20 01:50:30;;;;;;;11.77;2.20;;;2.40;99.90;;;;;;6211621;23;20382;-46
2022/01/20 01:52:58;;;;;;;5.23;1.90;;;2.50;1.00;;;;;;6211845;23;20738;-46
2022/01/20 01:55:24;;;;;;;9.93;1.90;;;2.50;1.00;;;;;;6211835;23;20293;-46
2022/01/20 01:57:50;;;;;;;19.33;2.40;;;2.40;23.50;;;;;;6211743;23;20388;-46
2022/01/20 02:00:17;;;;;;;5.53;1.40;;;2.50;99.90;;;;;;6212028;23;20374;-46
2022/01/20 02:02:44;;;;;;;12.70;2.03;;;2.50;99.90;;;;;;6211642;23;20469;-46
2022/01/20 02:05:13;;;;;;;11.07;1.90;;;2.50;99.90;;;;;;6211558;23;20374;-46
2022/01/20 02:18:42;;;;;;;6.50;2.03;;;2.50;99.90;;;;;;6211244;23;20361;-46
2022/01/20 02:21:08;;;;;;;14.30;1.77;;;2.40;99.90;;;;;;6211787;23;20361;-46
2022/01/20 02:23:34;;;;;;;10.30;1.80;;;2.50;99.90;;;;;;6211974;23;20439;-46
2022/01/20 02:26:00;;;;;;;9.03;2.10;;;2.40;1.00;;;;;;6211699;23;20169;-46
2022/01/20 02:28:27;;;;;;;6.27;1.87;;;2.40;1.00;;;;;;6211678;23;20875;-46
2022/01/20 02:30:54;;;;;;;10.00;2.17;;;2.30;1.00;;;;;;6211634;23;20369;-46
2022/01/20 02:33:22;;;;;;;4.77;2.03;;;2.30;99.90;;;;;;6211226;23;20429;-46
2022/01/20 02:35:50;;;;;;;10.83;1.90;;;2.30;99.90;;;;;;6211729;23;20740;-46
2022/01/20 02:38:26;;;;;;;8.90;2.23;;;2.20;99.90;;;;;;6211843;23;20370;-46
2022/01/20 02:46:21;;;;;;;11.47;1.90;;;2.10;1.00;;;;;;6213029;23;20447;-46
2022/01/20 02:48:46;;;;;;;13.93;1.87;;;2.20;1.00;;;;;;6213234;23;20373;-46
2022/01/20 02:51:12;;;;;;;11.60;2.40;;;2.20;99.90;;;;;;6213578;23;20377;-46
2022/01/20 02:53:38;;;;;;;16.97;2.80;;;2.10;1.00;;;;;;6213551;23;20574;-46
2022/01/20 02:56:03;;;;;;;20.83;3.57;;;2.10;1.00;;;;;;6213461;23;20158;-46
2022/01/20 02:58:29;;;;;;;14.73;2.70;;;2.10;99.90;;;;;;6213601;23;20222;-46
2022/01/20 03:00:55;;;;;;;15.20;2.70;;;2.10;1.00;;;;;;6213163;23;20162;-46
2022/01/20 03:03:21;;;;;;;12.77;3.07;;;2.10;1.00;;;;;;6213348;23;20372;-52
2022/01/20 03:05:46;;;;;;;9.90;2.63;;;2.00;1.00;;;;;;6213047;23;20182;-52
2022/01/20 03:08:13;;;;;;;17.23;2.93;;;1.90;1.00;;;;;;6213258;23;20147;-52
2022/01/20 03:10:38;;;;;;;14.13;3.50;;;2.00;99.90;;;;;;6213308;23;20190;-52
2022/01/20 03:13:05;;;;;;;28.07;3.63;;;1.90;99.90;;;;;;6186357;23;20430;-52
2022/01/20 03:15:33;;;;;;;23.17;2.70;;;1.80;99.90;;;;;;6213136;23;20234;-52
2022/01/20 03:17:59;;;;;;;13.43;2.53;;;1.80;99.90;;;;;;6212923;23;20362;-51
2022/01/20 03:20:24;;;;;;;27.83;3.10;;;1.80;1.00;;;;;;6213085;23;20683;-52
2022/01/20 03:22:50;;;;;;;15.60;2.20;;;1.80;1.00;;;;;;6213167;23;20154;-52
2022/01/20 03:25:15;;;;;;;16.00;2.80;;;1.80;99.90;;;;;;6213030;23;20150;-52
2022/01/20 03:27:41;;;;;;;14.50;2.73;;;1.70;99.90;;;;;;6212846;23;20237;-53
2022/01/20 03:30:08;;;;;;;11.37;2.20;;;1.80;99.90;;;;;;6213123;23;20618;-52
2022/01/20 03:32:34;;;;;;;15.93;2.27;;;1.80;99.90;;;;;;6212525;23;20193;-52
2022/01/20 03:35:01;;;;;;;9.20;1.80;;;1.70;1.00;;;;;;6212649;23;20382;-52
2022/01/20 03:37:27;;;;;;;10.33;2.17;;;1.70;1.00;;;;;;6213165;23;20147;-52
2022/01/20 03:39:52;;;;;;;6.10;2.00;;;1.70;1.00;;;;;;6212949;23;20385;-53
2022/01/20 03:42:18;;;;;;;16.00;3.03;;;1.70;1.00;;;;;;6212947;23;20158;-46
2022/01/20 03:44:43;;;;;;;19.57;2.77;;;1.70;1.00;;;;;;6212898;23;20267;-45
2022/01/20 03:47:10;;;;;;;13.23;2.03;;;1.70;1.00;;;;;;6212489;23;20158;-45
2022/01/20 03:49:51;;;;;;;24.27;2.43;;;1.80;1.00;;;;;;6212822;23;20201;-45
2022/01/20 03:52:17;;;;;;;17.50;2.30;;;1.80;1.00;;;;;;6212786;23;20420;-45
2022/01/20 03:54:43;;;;;;;19.17;1.93;;;1.80;1.00;;;;;;6212838;23;20382;-46
2022/01/20 03:57:09;;;;;;;41.87;4.03;;;1.70;1.00;;;;;;6212724;23;20484;-45
2022/01/20 03:59:34;;;;;;;9.17;2.40;;;1.70;1.00;;;;;;6212515;23;20142;-45
2022/01/20 04:02:00;;;;;;;10.70;2.13;;;1.70;1.00;;;;;;6212880;23;20173;-45
2022/01/20 04:04:26;;;;;;;19.00;3.83;;;1.80;1.00;;;;;;6212411;23;20205;-45
2022/01/20 04:06:51;;;;;;;15.50;1.97;;;1.70;1.00;;;;;;6212471;23;20593;-46
2022/01/20 04:09:16;;;;;;;10.60;1.83;;;1.70;1.00;;;;;;6212832;23;20229;-45
2022/01/20 04:11:42;;;;;;;11.70;2.00;;;1.60;1.00;;;;;;6212450;23;20832;-45
2022/01/20 04:14:09;;;;;;;17.40;1.90;;;1.60;1.00;;;;;;6212620;23;20196;-46
2022/01/20 04:16:53;;;;;;;9.30;1.83;;;1.60;1.00;;;;;;6212593;23;20565;-45
2022/01/20 04:19:19;;;;;;;7.37;1.50;;;1.60;1.00;;;;;;6212223;23;20457;-45
2022/01/20 04:21:45;;;;;;;10.60;1.67;;;1.50;1.00;;;;;;6212380;23;20480;-46
2022/01/20 04:24:11;;;;;;;9.60;1.40;;;1.50;1.00;;;;;;6212328;23;20159;-45
2022/01/20 04:26:38;;;;;;;10.20;2.90;;;1.50;1.00;;;;;;6212383;23;20802;-45
2022/01/20 04:29:06;;;;;;;5.47;1.73;;;1.40;1.00;;;;;;6212339;23;20380;-45
2022/01/20 04:31:35;;;;;;;10.80;1.90;;;1.50;1.00;;;;;;6212129;23;20404;-45
2022/01/20 04:34:02;;;;;;;8.00;2.07;;;1.40;1.00;;;;;;6212257;23;20473;-45
2022/01/20 04:36:34;;;;;;;8.20;2.17;;;1.40;1.00;;;;;;6212163;23;20398;-46
2022/01/20 04:39:01;;;;;;;13.47;1.70;;;1.40;1.00;;;;;;6212275;23;20385;-45
2022/01/20 04:41:30;;;;;;;7.93;3.00;;;1.40;1.00;;;;;;6185459;23;20397;-45
2022/01/20 04:43:56;;;;;;;12.73;2.43;;;1.40;1.00;;;;;;6212298;23;21170;-46
2022/01/20 04:59:39;;;;;;;10.77;2.37;;;1.20;1.00;;;;;;6212104;23;20410;-45
2022/01/20 05:02:04;;;;;;;12.50;2.00;;;1.20;1.00;;;;;;6211903;23;20393;-45
2022/01/20 05:04:30;;;;;;;25.60;2.70;;;1.20;1.00;;;;;;6212054;23;20527;-46
2022/01/20 05:06:57;;;;;;;16.43;2.37;;;1.20;1.00;;;;;;6211794;23;20182;-45
2022/01/20 05:09:23;;;;;;;13.20;2.47;;;1.20;1.00;;;;;;6211809;23;20158;-46
2022/01/20 05:11:58;;;;;;;8.07;2.23;;;1.30;1.00;;;;;;6211864;23;21234;-45
2022/01/20 05:14:24;;;;;;;12.70;2.43;;;1.30;1.00;;;;;;6211828;23;20157;-45
2022/01/20 05:16:51;;;;;;;16.63;2.80;;;1.30;1.00;;;;;;6212194;23;20988;-45
2022/01/20 05:19:16;;;;;;;11.57;2.27;;;1.30;1.00;;;;;;6211819;23;20256;-45
2022/01/20 05:21:42;;;;;;;19.27;2.53;;;1.30;1.00;;;;;;6211894;23;20377;-46
2022/01/20 05:24:07;;;;;;;14.80;2.50;;;1.20;1.00;;;;;;6212028;23;20151;-45
2022/01/20 05:26:33;;;;;;;15.23;2.23;;;1.20;1.00;;;;;;6211777;23;20162;-45
2022/01/20 05:28:59;;;;;;;18.17;2.30;;;1.30;1.00;;;;;;6211723;23;20832;-45
2022/01/20 05:31:24;;;;;;;12.83;2.60;;;1.30;1.00;;;;;;6211726;23;20157;-45
2022/01/20 05:33:50;;;;;;;12.40;2.47;;;1.30;1.00;;;;;;6211573;23;20550;-45
2022/01/20 05:36:15;;;;;;;20.67;2.80;;;1.30;1.00;;;;;;6211897;23;20143;-45
2022/01/20 05:38:41;;;;;;;11.83;2.27;;;1.30;1.00;;;;;;6211683;23;20247;-45
2022/01/20 05:41:07;;;;;;;15.53;2.93;;;1.30;1.00;;;;;;6211431;23;20147;-45
2022/01/20 05:43:32;;;;;;;14.67;2.50;;;1.40;1.00;;;;;;6211688;23;20166;-45
2022/01/20 05:45:58;;;;;;;14.67;2.90;;;1.40;1.00;;;;;;6211493;23;20206;-45
2022/01/20 05:48:35;;;;;;;19.70;3.60;;;1.50;1.00;;;;;;6211569;23;20188;-45
2022/01/20 05:51:01;;;;;;;29.70;3.50;;;1.50;1.00;;;;;;6211668;23;20150;-45
2022/01/20 05:53:27;;;;;;;15.07;2.60;;;1.40;1.00;;;;;;6211520;23;20437;-45
2022/01/20 05:55:53;;;;;;;18.00;3.17;;;1.50;1.00;;;;;;6211526;23;20784;-45
2022/01/20 05:58:21;;;;;;;17.57;3.17;;;1.50;1.00;;;;;;6211612;23;20143;-45
2022/01/20 06:00:47;;;;;;;29.80;4.87;;;1.40;1.00;;;;;;6211564;23;20757;-46
2022/01/20 06:05:58;;;;;;;21.30;3.50;;;1.40;1.00;;;;;;6211477;23;20370;-45
2022/01/20 06:08:24;;;;;;;17.77;2.90;;;1.40;1.00;;;;;;6211814;23;20366;-45
2022/01/20 06:10:49;;;;;;;14.93;3.40;;;1.50;1.00;;;;;;6211161;23;20459;-45
2022/01/20 06:13:15;;;;;;;21.90;3.20;;;1.50;1.00;;;;;;6211586;23;20186;-45
2022/01/20 06:15:41;;;;;;;24.10;3.17;;;1.50;1.00;;;;;;6211562;23;20795;-45
2022/01/20 06:18:07;;;;;;;28.80;4.17;;;1.50;1.00;;;;;;6211623;23;20725;-45
2022/01/20 06:20:33;;;;;;;21.77;3.40;;;1.40;1.00;;;;;;6212576;23;20142;-45
2022/01/20 06:22:59;;;;;;;18.13;3.90;;;1.40;1.00;;;;;;6213452;23;20388;-45
2022/01/20 06:25:25;;;;;;;28.23;3.03;;;1.40;1.00;;;;;;6213650;23;20370;-45
2022/01/20 06:27:51;;;;;;;13.40;3.40;;;1.40;1.00;;;;;;6213491;23;20550;-45
2022/01/20 06:30:17;;;;;;;25.87;3.43;;;1.40;1.00;;;;;;6213672;23;20162;-45
2022/01/20 06:32:43;;;;;;;17.37;3.03;;;1.40;1.00;;;;;;6213632;23;20206;-45
2022/01/20 06:35:09;;;;;;;15.17;2.93;;;1.40;1.00;;;;;;6213120;23;20899;-45
2022/01/20 06:37:35;;;;;;;17.30;3.30;;;1.40;1.00;;;;;;6213205;23;20824;-45
2022/01/20 06:40:01;;;;;;;25.43;3.47;;;1.40;1.00;;;;;;6213125;23;20492;-45
2022/01/20 06:42:26;;;;;;;18.27;3.10;;;1.40;1.00;;;;;;6213334;23;20150;-45
2022/01/20 06:44:52;;;;;;;42.87;4.53;;;1.40;1.00;;;;;;6213298;23;20198;-45
2022/01/20 06:47:19;;;;;;;18.80;3.13;;;1.50;1.00;;;;;;6213384;23;20186;-45
2022/01/20 06:49:45;;;;;;;9.63;2.57;;;1.50;1.00;;;;;;6213514;23;20518;-45
2022/01/20 06:52:11;;;;;;;23.67;3.80;;;1.40;1.00;;;;;;6186313;23;20436;-45
2022/01/20 06:54:36;;;;;;;21.47;3.00;;;1.50;1.00;;;;;;6213716;23;20147;-45
2022/01/20 06:57:02;;;;;;;21.40;3.70;;;1.40;1.00;;;;;;6213400;23;20143;-46
2022/01/20 06:59:28;;;;;;;24.07;3.20;;;1.40;1.00;;;;;;6213096;23;20181;-45
2022/01/20 07:01:53;;;;;;;16.63;3.30;;;1.30;1.00;;;;;;6213229;23;20541;-45
2022/01/20 07:04:19;;;;;;;21.67;3.57;;;1.40;1.00;;;;;;6212864;23;20200;-45
2022/01/20 07:06:45;;;;;;;16.60;3.20;;;1.40;1.00;;;;;;6213221;23;20472;-45
2022/01/20 07:09:11;;;;;;;17.23;3.03;;;1.40;1.00;;;;;;6213226;23;20159;-45
2022/01/20 07:11:40;;;;;;;20.40;3.27;;;1.40;1.00;;;;;;6213478;23;21001;-45
2022/01/20 07:14:06;;;;;;;20.87;2.90;;;1.50;1.00;;;;;;6213120;23;20385;-45
2022/01/20 07:16:31;;;;;;;22.30;4.20;;;1.50;1.00;;;;;;6213438;23;20393;-45
2022/01/20 07:18:57;;;;;;;17.40;3.00;;;1.50;1.00;;;;;;6212978;23;20378;-45
2022/01/20 07:21:23;;;;;;;32.00;3.33;;;1.60;1.00;;;;;;6213082;23;20150;-45
2022/01/20 07:23:50;;;;;;;15.37;3.30;;;1.60;1.00;;;;;;6212904;23;20392;-45
2022/01/20 07:26:16;;;;;;;19.00;3.30;;;1.60;1.00;;;;;;6212976;23;20358;-45
2022/01/20 07:28:42;;;;;;;17.37;4.07;;;1.60;1.00;;;;;;6212802;23;20364;-45
2022/01/20 07:31:08;;;;;;;24.03;3.47;;;1.60;1.00;;;;;;6212738;23;20465;-45
2022/01/20 07:33:34;;;;;;;17.33;2.93;;;1.50;1.00;;;;;;6212809;23;20425;-45
2022/01/20 07:35:59;;;;;;;24.73;3.07;;;1.50;1.00;;;;;;6212583;23;20362;-45
2022/01/20 07:38:25;;;;;;;13.73;2.70;;;1.50;1.00;;;;;;6212772;23;20465;-45
2022/01/20 07:40:51;;;;;;;19.37;2.90;;;1.50;1.00;;;;;;6213123;23;20146;-45
2022/01/20 07:43:18;;;;;;;24.83;2.97;;;1.60;1.00;;;;;;6212716;23;20151;-46
2022/01/20 07:45:44;;;;;;;13.80;3.07;;;1.60;1.00;;;;;;6212565;23;20437;-45
2022/01/20 07:48:10;;;;;;;25.87;3.10;;;1.70;1.00;;;;;;6212705;23;20905;-45
2022/01/20 07:50:35;;;;;;;20.50;2.90;;;1.70;1.00;;;;;;6212817;23;20377;-45
2022/01/20 07:53:01;;;;;;;24.00;2.93;;;1.60;1.00;;;;;;6212658;23;20174;-52
2022/01/20 07:55:27;;;;;;;16.67;3.03;;;1.70;1.00;;;;;;6213058;23;20234;-52
2022/01/20 07:57:53;;;;;;;22.70;2.87;;;1.80;1.00;;;;;;6212299;23;20393;-50
2022/01/20 08:00:18;;;;;;;20.87;3.27;;;1.80;1.00;;;;;;6212560;23;20139;-52
2022/01/20 08:02:45;;;;;;;16.10;3.00;;;1.80;1.00;;;;;;6212867;23;20162;-52
2022/01/20 08:05:11;;;;;;;13.57;2.13;;;1.90;1.00;;;;;;6212757;23;20151;-52
2022/01/20 08:07:36;;;;;;;11.40;2.63;;;2.00;1.00;;;;;;6212867;23;20476;-52
2022/01/20 08:10:03;;;;;;;15.70;2.60;;;2.10;1.00;;;;;;6212637;23;20142;-53
2022/01/20 08:12:29;;;;;;;16.00;1.93;;;2.10;1.00;;;;;;6212567;23;20186;-52
2022/01/20 08:14:56;;;;;;;10.87;2.10;;;2.00;1.00;;;;;;6212827;23;20409;-52
2022/01/20 08:17:22;;;;;;;7.57;1.93;;;2.00;1.00;;;;;;6212715;23;20696;-52
2022/01/20 08:19:49;;;;;;;10.50;1.90;;;2.00;1.00;;;;;;6212479;23;20385;-52
2022/01/20 08:22:14;;;;;;;9.73;2.07;;;2.00;1.00;;;;;;6212360;23;20711;-52
2022/01/20 08:24:41;;;;;;;12.07;1.87;;;1.90;1.00;;;;;;6186193;23;20398;-53
2022/01/20 08:27:08;;;;;;;12.73;3.10;;;1.90;1.00;;;;;;6212688;23;20146;-52
2022/01/20 08:29:34;;;;;;;11.40;1.70;;;1.90;1.00;;;;;;6212806;23;20416;-53
2022/01/20 08:32:00;;;;;;;13.07;2.37;;;1.80;1.00;;;;;;6212446;23;20421;-52
2022/01/20 08:34:25;;;;;;;3.83;1.80;;;1.80;1.00;;;;;;6212329;23;20481;-52
2022/01/20 08:36:55;;;;;;;10.23;2.70;;;1.90;1.00;;;;;;6212343;23;20138;-53
2022/01/20 08:41:53;;;;;;;17.37;2.40;;;2.00;1.00;;;;;;6222692;23;20373;-53
2022/01/20 08:44:18;;;;;;;12.13;2.00;;;2.00;1.00;;;;;;6212052;23;20476;-52
2022/01/20 08:46:46;;;;;;;22.23;2.77;;;2.00;1.00;;;;;;6212217;23;20252;-53
2022/01/20 08:49:12;;;;;;;10.77;2.97;;;2.00;1.00;;;;;;6212050;23;20154;-52
2022/01/20 08:51:39;;;;;;;22.37;3.10;;;2.10;1.00;;;;;;6212173;23;20696;-52
2022/01/20 08:54:04;;;;;;;14.00;2.40;;;2.20;1.00;;;;;;6212379;23;20151;-52
2022/01/20 08:56:30;;;;;;;14.00;2.33;;;2.30;1.00;;;;;;6212369;23;20396;-52
2022/01/20 08:58:55;;;;;;;16.60;3.40;;;2.40;1.00;;;;;;6212289;23;20150;-53
2022/01/20 09:01:21;;;;;;;16.73;2.30;;;2.40;1.00;;;;;;6212322;23;20158;-53
2022/01/20 09:03:47;;;;;;;15.77;3.10;;;2.30;1.00;;;;;;6212085;23;20146;-53
2022/01/20 09:06:13;;;;;;;17.23;2.97;;;2.30;1.00;;;;;;6212008;23;20472;-52
2022/01/20 09:08:39;;;;;;;14.27;3.20;;;2.30;1.00;;;;;;6212068;23;20385;-52
2022/01/20 09:11:16;;;;;;;22.33;2.87;;;2.40;1.00;;;;;;6211968;23;20189;-52
2022/01/20 09:16:26;;;;;;;13.73;2.70;;;2.60;1.00;;;;;;6212181;23;20358;-52
2022/01/20 09:18:52;;;;;;;15.80;2.67;;;2.80;1.00;;;;;;6211765;23;20684;-53
2022/01/20 09:21:21;;;;;;;10.87;2.10;;;2.90;1.00;;;;;;6211965;23;20155;-52
2022/01/20 09:23:47;;;;;;;3.60;1.20;;;3.00;1.00;;;;;;6212044;23;20143;-53
2022/01/20 09:26:13;;;;;;;4.93;1.50;;;2.70;1.00;;;;;;6211914;23;20866;-53
2022/01/20 09:28:39;;;;;;;13.80;2.63;;;2.40;1.00;;;;;;6212262;23;20154;-52
2022/01/20 09:31:04;;;;;;;7.03;1.50;;;2.20;1.00;;;;;;6212244;23;20465;-52
2022/01/20 09:33:30;;;;;;;7.67;1.53;;;2.10;1.00;;;;;;6211608;23;20198;-52
2022/01/20 09:35:57;;;;;;;13.10;1.90;;;2.00;1.00;;;;;;6212004;23;20204;-52
2022/01/20 09:38:23;;;;;;;7.13;2.10;;;2.10;1.00;;;;;;6211846;23;20169;-53
2022/01/20 09:40:49;;;;;;;8.47;1.67;;;2.20;1.00;;;;;;6211895;23;20400;-52
2022/01/20 09:43:16;;;;;;;8.80;2.33;;;2.30;1.00;;;;;;6212002;23;20146;-52
2022/01/20 09:45:44;;;;;;;18.90;3.97;;;2.40;1.00;;;;;;6211912;23;20514;-52
2022/01/20 09:48:11;;;;;;;9.17;1.63;;;2.40;1.00;;;;;;6211498;23;20468;-52
2022/01/20 09:50:36;;;;;;;9.50;1.77;;;2.30;1.00;;;;;;6212441;23;20381;-52
2022/01/20 09:53:03;;;;;;;17.07;2.20;;;2.30;1.00;;;;;;6211688;23;20425;-52
2022/01/20 09:55:32;;;;;;;12.00;1.97;;;2.30;1.00;;;;;;6211890;23;20589;-52
2022/01/20 09:57:58;;;;;;;16.57;2.43;;;2.20;1.00;;;;;;6212210;23;20358;-52
2022/01/20 10:00:24;;;;;;;9.53;1.90;;;2.20;1.00;;;;;;6212219;23;20660;-52
2022/01/20 10:03:00;;;;;;;18.23;2.77;;;2.10;1.00;;;;;;6211621;23;20520;-52
2022/01/20 10:05:29;;;;;;;10.23;2.30;;;2.00;1.00;;;;;;6211810;23;20142;-53
2022/01/20 10:08:01;;;;;;;9.10;2.40;;;2.10;1.00;;;;;;6211871;23;20401;-52
2022/01/20 10:10:54;;;;;;;14.87;2.87;;;2.20;1.00;;;;;;6211679;23;20369;-52
2022/01/20 10:13:23;;;;;;;11.50;2.10;;;2.60;1.00;;;;;;6211765;23;20556;-53
2022/01/20 10:16:03;;;;;;;13.00;1.97;;;3.30;1.00;;;;;;6212077;23;20500;-53
2022/01/20 10:18:30;;;;;;;10.90;1.90;;;3.90;1.00;;;;;;6211509;23;20358;-52
2022/01/20 10:20:59;;;;;;;7.03;2.10;;;4.10;1.00;;;;;;6212105;23;20366;-52
2022/01/20 10:23:36;;;;;;;9.77;2.30;;;4.00;1.00;;;;;;6211824;23;20417;-53
2022/01/20 10:26:18;;;;;;;13.80;1.70;;;3.80;1.00;;;;;;6212063;23;20372;-52
2022/01/20 10:28:52;;;;;;;2.63;1.43;;;3.30;1.00;;;;;;6211770;23;20365;-52
2022/01/20 10:31:29;;;;;;;3.70;1.00;;;2.40;1.00;;;;;;6211585;23;20365;-52
2022/01/20 10:33:55;;;;;;;5.87;1.00;;;1.70;99.90;;;;;;6211798;23;20374;-53
2022/01/20 10:36:21;;;;;;;4.93;0.90;;;1.30;1.00;;;;;;6211577;23;20444;-52
2022/01/20 10:38:55;;;;;;;5.30;1.33;;;1.10;1.00;;;;;;6211778;23;20165;-52
2022/01/20 10:41:32;;;;;;;3.50;1.00;;;1.00;99.90;;;;;;6211536;23;20369;-52
2022/01/20 10:44:05;;;;;;;8.83;1.30;;;0.90;99.90;;;;;;6211660;23;20385;-50
2022/01/20 10:46:54;;;;;;;1.07;0.93;;;0.80;1.00;;;;;;6211833;23;20469;-52
2022/01/20 10:49:21;;;;;;;7.00;1.80;;;0.80;99.90;;;;;;6211800;23;20362;-52
2022/01/20 10:51:59;;;;;;;8.63;1.43;;;1.30;32.20;;;;;;6211829;23;20377;-52
2022/01/20 10:54:25;;;;;;;9.93;1.60;;;2.80;1.00;;;;;;6211863;23;20365;-52
2022/01/20 10:56:52;;;;;;;6.63;2.03;;;4.90;99.90;;;;;;6211783;23;20906;-52
2022/01/20 10:59:20;;;;;;;5.33;1.80;;;6.50;1.00;;;;;;6211801;23;20149;-52
2022/01/20 11:02:05;;;;;;;8.23;1.83;;;7.70;1.00;;;;;;6211515;23;20362;-52
2022/01/20 11:04:31;;;;;;;9.40;2.97;;;8.70;1.00;;;;;;6211523;23;20354;-52
2022/01/20 11:07:01;;;;;;;7.83;2.07;;;9.10;1.00;;;;;;6212581;23;20362;-52
2022/01/20 11:09:28;;;;;;;10.17;3.93;;;9.60;1.00;;;;;;6213608;23;20361;-52
2022/01/20 11:11:55;;;;;;;14.13;5.87;;;10.30;99.90;;;;;;6213265;23;20427;-52
2022/01/20 11:14:21;;;;;;;17.90;5.90;;;10.50;99.90;;;;;;6213571;23;20393;-52
2022/01/20 11:16:48;;;;;;;21.60;7.83;;;11.20;99.90;;;;;;6213175;23;20362;-52
2022/01/20 11:19:19;;;;;;;16.30;6.80;;;11.70;99.90;;;;;;6213233;23;20374;-52
2022/01/20 11:21:45;;;;;;;14.37;6.00;;;11.60;99.90;;;;;;6213235;23;20693;-46
2022/01/20 11:24:24;;;;;;;11.27;3.60;;;11.30;99.90;;;;;;6213521;23;20882;-46
2022/01/20 11:26:58;;;;;;;11.33;2.50;;;11.10;99.90;;;;;;6213281;23;20420;-46
2022/01/20 11:29:38;;;;;;;9.70;2.70;;;10.30;99.90;;;;;;6213238;23;20392;-46
2022/01/20 11:32:16;;;;;;;7.90;1.97;;;9.50;99.90;;;;;;6186520;23;20978;-46
2022/01/20 11:34:52;;;;;;;10.07;1.90;;;8.80;99.90;;;;;;6213288;23;20354;-46
2022/01/20 11:37:23;;;;;;;10.90;1.80;;;8.40;99.90;;;;;;6213321;23;20362;-46
2022/01/20 11:39:50;;;;;;;18.43;2.27;;;8.10;99.90;;;;;;6213346;23;20793;-45
2022/01/20 11:42:25;;;;;;;13.40;2.10;;;7.60;99.90;;;;;;6213125;23;20812;-45
2022/01/20 11:44:52;;;;;;;11.83;1.73;;;6.70;99.90;;;;;;6212825;23;20385;-45
2022/01/20 11:47:18;;;;;;;12.00;1.77;;;5.70;99.90;;;;;;6213390;23;20424;-52
2022/01/20 11:49:45;;;;;;;7.50;1.80;;;5.20;99.90;;;;;;6213324;23;20366;-46
2022/01/20 11:52:22;;;;;;;11.07;2.27;;;4.80;1.00;;;;;;6213120;23;20432;-50
2022/01/20 11:54:47;;;;;;;14.10;2.40;;;4.50;1.00;;;;;;6212871;23;20374;-46
2022/01/20 11:57:20;;;;;;;9.97;2.20;;;4.60;1.00;;;;;;6213357;23;20429;-45
2022/01/20 11:59:47;;;;;;;16.83;2.23;;;5.10;1.00;;;;;;6213140;23;20483;-45
2022/01/20 12:02:36;;;;;;;8.10;1.60;;;5.70;1.00;;;;;;6213020;23;20370;-45
2022/01/20 12:05:04;;;;;;;9.53;1.80;;;5.70;1.00;;;;;;6212688;23;20378;-45
2022/01/20 12:07:34;;;;;;;10.60;1.67;;;5.50;1.00;;;;;;6213024;23;20378;-46
2022/01/20 12:10:06;;;;;;;8.73;1.90;;;5.30;1.00;;;;;;6212856;23;20358;-46
2022/01/20 12:12:32;;;;;;;16.27;2.17;;;5.40;1.00;;;;;;6212826;23;20420;-45
2022/01/20 12:15:16;;;;;;;8.73;2.10;;;5.40;1.00;;;;;;6212851;23;20386;-45
2022/01/20 12:17:50;;;;;;;10.83;2.30;;;5.40;1.00;;;;;;6212655;23;20722;-45
2022/01/20 12:20:16;;;;;;;13.03;3.73;;;5.20;1.00;;;;;;6212712;23;20377;-46
2022/01/20 12:22:42;;;;;;;11.20;2.13;;;4.70;1.00;;;;;;6212731;23;20377;-55
2022/01/20 12:25:25;;;;;;;14.73;2.50;;;4.90;1.00;;;;;;6212755;23;20639;-45
2022/01/20 12:27:51;;;;;;;8.87;2.50;;;5.70;99.90;;;;;;6212394;23;20369;-45
2022/01/20 12:30:24;;;;;;;9.40;1.90;;;5.50;1.00;;;;;;6212804;23;20425;-46
2022/01/20 12:33:10;;;;;;;11.30;2.30;;;5.20;1.00;;;;;;6212724;23;20429;-45
2022/01/20 12:35:45;;;;;;;4.90;1.70;;;6.00;99.90;;;;;;6212708;23;20421;-45
2022/01/20 12:38:28;;;;;;;10.40;1.63;;;7.10;99.90;;;;;;6213050;23;20373;-45
2022/01/20 12:41:18;;;;;;;5.10;1.63;;;8.00;99.90;;;;;;6212710;23;20374;-45
2022/01/20 12:43:45;;;;;;;5.10;2.10;;;9.00;99.90;;;;;;6212499;23;20374;-46
2022/01/20 12:46:17;;;;;;;11.87;1.67;;;8.60;99.90;;;;;;6212193;23;20460;-46
2022/01/20 12:49:05;;;;;;;10.10;1.87;;;9.00;99.90;;;;;;6212310;23;20370;-45
2022/01/20 12:51:36;;;;;;;8.90;2.07;;;9.40;99.90;;;;;;6212334;23;20374;-45
2022/01/20 12:54:13;;;;;;;9.83;2.40;;;9.20;99.90;;;;;;6212529;23;20366;-45
2022/01/20 12:56:43;;;;;;;11.63;2.30;;;7.40;99.90;;;;;;6212512;23;20385;-45
2022/01/20 12:59:09;;;;;;;7.47;1.50;;;5.90;99.90;;;;;;6212749;23;20389;-46
2022/01/20 13:01:47;;;;;;;6.23;2.00;;;5.10;99.90;;;;;;6212304;23;20370;-45
2022/01/20 13:04:16;;;;;;;13.40;1.73;;;4.60;99.90;;;;;;6212068;23;20166;-45
2022/01/20 13:06:54;;;;;;;9.77;2.20;;;4.70;1.00;;;;;;6212820;23;20419;-45
2022/01/20 13:09:22;;;;;;;8.03;1.83;;;5.10;1.00;;;;;;6213248;23;21138;-45
2022/01/20 13:11:56;;;;;;;9.30;1.50;;;5.70;99.90;;;;;;6212230;23;20374;-45
2022/01/20 13:14:45;;;;;;;9.50;2.00;;;6.20;99.90;;;;;;6212606;23;20894;-46
2022/01/20 13:17:25;;;;;;;11.63;2.67;;;6.30;99.90;;;;;;6212637;23;20415;-49
2022/01/20 13:19:54;;;;;;;7.53;1.60;;;6.90;99.90;;;;;;6212338;23;20358;-45
2022/01/20 13:22:29;;;;;;;8.57;1.47;;;7.00;99.90;;;;;;6211948;23;20843;-46
2022/01/20 13:25:08;;;;;;;5.67;1.60;;;6.30;99.90;;;;;;6212010;23;20361;-46
2022/01/20 13:27:34;;;;;;;5.57;1.57;;;5.70;99.90;;;;;;6212303;23;20380;-51
2022/01/20 13:30:00;;;;;;;4.80;1.30;;;4.80;1.00;;;;;;6211922;23;20377;-52
2022/01/20 13:32:25;;;;;;;6.17;1.27;;;3.60;1.00;;;;;;6212537;23;20727;-51
2022/01/20 13:35:01;;;;;;;4.73;1.27;;;2.80;1.00;;;;;;6212617;23;20289;-52
2022/01/20 13:37:31;;;;;;;4.40;1.20;;;2.20;10.20;;;;;;6212270;23;20540;-56
2022/01/20 13:39:59;;;;;;;5.00;1.43;;;1.70;99.90;;;;;;6211976;23;20362;-52
2022/01/20 13:45:14;;;;;;;14.57;1.60;;;1.30;99.90;;;;;;6212436;23;20405;-51
2022/01/20 13:47:57;;;;;;;6.83;1.97;;;1.20;84.00;;;;;;6213291;23;20752;-51
2022/01/20 13:50:53;;;;;;;3.60;1.50;;;1.30;1.00;;;;;;6212681;23;20391;-52
2022/01/20 13:53:23;;;;;;;4.63;1.57;;;1.30;1.00;;;;;;6209518;23;20433;-52
2022/01/20 13:55:49;;;;;;;6.23;1.67;;;1.40;1.00;;;;;;6212752;23;20394;-52
2022/01/20 13:58:27;;;;;;;11.07;1.50;;;1.40;1.00;;;;;;6212197;23;20819;-52
2022/01/20 14:00:54;;;;;;;8.23;1.63;;;1.40;1.00;;;;;;6212021;23;20143;-51
2022/01/20 14:03:21;;;;;;;5.43;1.37;;;1.40;1.00;;;;;;6211931;23;20692;-52
2022/01/20 14:05:49;;;;;;;4.57;1.40;;;1.50;1.00;;;;;;6212224;23;20419;-52
2022/01/20 14:08:15;;;;;;;8.47;1.63;;;1.50;1.00;;;;;;6212015;23;20452;-52
2022/01/20 14:10:40;;;;;;;7.23;1.70;;;1.50;1.00;;;;;;6211955;23;20385;-52
2022/01/20 14:13:06;;;;;;;7.67;2.00;;;1.50;1.00;;;;;;6211815;23;20213;-52
2022/01/20 14:15:32;;;;;;;4.83;1.33;;;1.50;1.00;;;;;;6212219;23;20171;-52
2022/01/20 14:18:00;;;;;;;14.90;2.30;;;1.50;1.00;;;;;;6211887;23;20479;-52
2022/01/20 14:20:30;;;;;;;6.77;1.80;;;1.50;1.00;;;;;;6211948;23;20573;-52